sensor_id;sensor_type;location;lat;lon;timestamp;temperature;humidity
67093;SHT31;54011;50.772;7.730;2022-08-19T00:00:12;17.73;79.81
67093;SHT31;54011;50.772;7.730;2022-08-19T00:02:40;17.73;79.87
67093;SHT31;54011;50.772;7.730;2022-08-19T00:05:07;17.64;80.02
67093;SHT31;54011;50.772;7.730;2022-08-19T00:07:33;17.62;80.04
67093;SHT31;54011;50.772;7.730;2022-08-19T00:09:59;17.62;79.95
67093;SHT31;54011;50.772;7.730;2022-08-19T00:12:26;17.62;80.12
67093;SHT31;54011;50.772;7.730;2022-08-19T00:14:51;17.56;80.50
67093;SHT31;54011;50.772;7.730;2022-08-19T00:17:18;17.70;80.17
67093;SHT31;54011;50.772;7.730;2022-08-19T00:19:46;17.81;79.43
67093;SHT31;54011;50.772;7.730;2022-08-19T00:22:12;17.69;80.00
67093;SHT31;54011;50.772;7.730;2022-08-19T00:24:37;17.69;80.12
67093;SHT31;54011;50.772;7.730;2022-08-19T00:27:04;17.67;80.17
67093;SHT31;54011;50.772;7.730;2022-08-19T00:29:30;17.50;80.58
67093;SHT31;54011;50.772;7.730;2022-08-19T00:31:56;17.36;81.21
67093;SHT31;54011;50.772;7.730;2022-08-19T00:34:26;17.30;81.30
67093;SHT31;54011;50.772;7.730;2022-08-19T00:36:58;17.29;81.55
67093;SHT31;54011;50.772;7.730;2022-08-19T00:39:24;17.25;81.98
67093;SHT31;54011;50.772;7.730;2022-08-19T00:41:50;17.29;81.98
67093;SHT31;54011;50.772;7.730;2022-08-19T00:44:22;17.30;81.93
67093;SHT31;54011;50.772;7.730;2022-08-19T00:46:49;17.32;81.82
67093;SHT31;54011;50.772;7.730;2022-08-19T00:49:48;17.35;81.78
67093;SHT31;54011;50.772;7.730;2022-08-19T00:52:17;17.29;81.86
67093;SHT31;54011;50.772;7.730;2022-08-19T00:54:46;17.25;81.93
67093;SHT31;54011;50.772;7.730;2022-08-19T00:57:17;17.12;82.33
67093;SHT31;54011;50.772;7.730;2022-08-19T00:59:46;17.26;81.73
67093;SHT31;54011;50.772;7.730;2022-08-19T01:02:12;17.32;81.33
67093;SHT31;54011;50.772;7.730;2022-08-19T01:04:38;17.35;81.09
67093;SHT31;54011;50.772;7.730;2022-08-19T01:07:04;17.29;81.01
67093;SHT31;54011;50.772;7.730;2022-08-19T01:09:30;17.19;81.30
67093;SHT31;54011;50.772;7.730;2022-08-19T01:11:56;17.29;81.00
67093;SHT31;54011;50.772;7.730;2022-08-19T01:14:22;17.11;81.88
67093;SHT31;54011;50.772;7.730;2022-08-19T01:16:48;17.13;81.85
67093;SHT31;54011;50.772;7.730;2022-08-19T01:19:29;17.15;81.82
67093;SHT31;54011;50.772;7.730;2022-08-19T01:22:08;17.25;81.58
67093;SHT31;54011;50.772;7.730;2022-08-19T01:24:36;17.29;81.37
67093;SHT31;54011;50.772;7.730;2022-08-19T01:27:04;17.29;81.42
67093;SHT31;54011;50.772;7.730;2022-08-19T01:29:30;17.20;81.31
67093;SHT31;54011;50.772;7.730;2022-08-19T01:31:57;17.19;81.41
67093;SHT31;54011;50.772;7.730;2022-08-19T01:34:22;16.96;82.41
67093;SHT31;54011;50.772;7.730;2022-08-19T01:36:49;16.99;82.27
67093;SHT31;54011;50.772;7.730;2022-08-19T01:39:20;16.89;83.07
67093;SHT31;54011;50.772;7.730;2022-08-19T01:41:47;16.74;83.41
67093;SHT31;54011;50.772;7.730;2022-08-19T01:44:14;16.74;83.66
67093;SHT31;54011;50.772;7.730;2022-08-19T01:46:39;16.67;83.76
67093;SHT31;54011;50.772;7.730;2022-08-19T01:49:06;16.64;83.78
67093;SHT31;54011;50.772;7.730;2022-08-19T01:51:33;16.48;84.45
67093;SHT31;54011;50.772;7.730;2022-08-19T01:53:59;16.47;84.26
67093;SHT31;54011;50.772;7.730;2022-08-19T01:56:25;16.54;84.06
67093;SHT31;54011;50.772;7.730;2022-08-19T01:58:59;16.47;84.02
67093;SHT31;54011;50.772;7.730;2022-08-19T02:01:25;16.51;83.85
67093;SHT31;54011;50.772;7.730;2022-08-19T02:03:51;16.45;83.96
67093;SHT31;54011;50.772;7.730;2022-08-19T02:06:19;16.55;83.56
67093;SHT31;54011;50.772;7.730;2022-08-19T02:08:45;16.61;83.55
67093;SHT31;54011;50.772;7.730;2022-08-19T02:11:23;16.50;83.76
67093;SHT31;54011;50.772;7.730;2022-08-19T02:13:49;16.58;83.53
67093;SHT31;54011;50.772;7.730;2022-08-19T02:16:17;16.40;84.41
67093;SHT31;54011;50.772;7.730;2022-08-19T02:18:43;16.48;83.73
67093;SHT31;54011;50.772;7.730;2022-08-19T02:21:09;16.37;83.89
67093;SHT31;54011;50.772;7.730;2022-08-19T02:23:34;16.40;83.48
67093;SHT31;54011;50.772;7.730;2022-08-19T02:26:00;16.33;83.64
67093;SHT31;54011;50.772;7.730;2022-08-19T02:28:25;16.26;83.46
67093;SHT31;54011;50.772;7.730;2022-08-19T02:30:51;16.16;83.82
67093;SHT31;54011;50.772;7.730;2022-08-19T02:33:17;16.09;84.10
67093;SHT31;54011;50.772;7.730;2022-08-19T02:35:44;16.10;83.90
67093;SHT31;54011;50.772;7.730;2022-08-19T02:38:10;15.85;84.64
67093;SHT31;54011;50.772;7.730;2022-08-19T02:40:58;15.96;84.30
67093;SHT31;54011;50.772;7.730;2022-08-19T02:43:25;15.97;84.21
67093;SHT31;54011;50.772;7.730;2022-08-19T02:45:51;16.07;83.79
67093;SHT31;54011;50.772;7.730;2022-08-19T02:48:19;16.09;84.11
67093;SHT31;54011;50.772;7.730;2022-08-19T02:50:46;16.07;84.06
67093;SHT31;54011;50.772;7.730;2022-08-19T02:53:12;16.09;84.31
67093;SHT31;54011;50.772;7.730;2022-08-19T02:55:45;16.03;84.70
67093;SHT31;54011;50.772;7.730;2022-08-19T02:58:12;15.93;84.57
67093;SHT31;54011;50.772;7.730;2022-08-19T03:00:50;15.86;84.73
67093;SHT31;54011;50.772;7.730;2022-08-19T03:03:16;15.66;85.45
67093;SHT31;54011;50.772;7.730;2022-08-19T03:05:42;15.70;85.37
67093;SHT31;54011;50.772;7.730;2022-08-19T03:08:08;15.69;85.30
67093;SHT31;54011;50.772;7.730;2022-08-19T03:10:46;15.61;85.63
67093;SHT31;54011;50.772;7.730;2022-08-19T03:13:14;15.54;85.54
67093;SHT31;54011;50.772;7.730;2022-08-19T03:15:42;15.66;85.09
67093;SHT31;54011;50.772;7.730;2022-08-19T03:18:08;15.83;84.88
67093;SHT31;54011;50.772;7.730;2022-08-19T03:20:43;15.82;85.47
67093;SHT31;54011;50.772;7.730;2022-08-19T03:23:09;15.83;85.19
67093;SHT31;54011;50.772;7.730;2022-08-19T03:25:43;15.85;85.27
67093;SHT31;54011;50.772;7.730;2022-08-19T03:28:11;15.82;85.30
67093;SHT31;54011;50.772;7.730;2022-08-19T03:30:39;15.83;85.22
67093;SHT31;54011;50.772;7.730;2022-08-19T03:33:07;15.86;85.29
67093;SHT31;54011;50.772;7.730;2022-08-19T03:35:32;15.85;85.21
67093;SHT31;54011;50.772;7.730;2022-08-19T03:37:59;15.72;85.55
67093;SHT31;54011;50.772;7.730;2022-08-19T03:40:25;15.76;85.18
67093;SHT31;54011;50.772;7.730;2022-08-19T03:42:50;15.54;86.26
67093;SHT31;54011;50.772;7.730;2022-08-19T03:45:16;15.63;85.83
67093;SHT31;54011;50.772;7.730;2022-08-19T03:47:42;15.59;85.88
67093;SHT31;54011;50.772;7.730;2022-08-19T03:50:08;15.54;85.88
67093;SHT31;54011;50.772;7.730;2022-08-19T03:52:34;15.63;85.27
67093;SHT31;54011;50.772;7.730;2022-08-19T03:55:02;15.51;85.34
67093;SHT31;54011;50.772;7.730;2022-08-19T03:57:28;15.58;85.31
67093;SHT31;54011;50.772;7.730;2022-08-19T03:59:53;15.58;85.38
67093;SHT31;54011;50.772;7.730;2022-08-19T04:02:19;15.56;85.58
67093;SHT31;54011;50.772;7.730;2022-08-19T04:04:45;15.59;86.11
67093;SHT31;54011;50.772;7.730;2022-08-19T04:07:13;15.54;85.74
67093;SHT31;54011;50.772;7.730;2022-08-19T04:09:43;15.48;85.98
67093;SHT31;54011;50.772;7.730;2022-08-19T04:12:08;15.51;86.02
67093;SHT31;54011;50.772;7.730;2022-08-19T04:14:34;15.51;85.78
67093;SHT31;54011;50.772;7.730;2022-08-19T04:17:01;15.36;86.09
67093;SHT31;54011;50.772;7.730;2022-08-19T04:19:29;15.38;86.21
67093;SHT31;54011;50.772;7.730;2022-08-19T04:21:55;15.35;86.39
67093;SHT31;54011;50.772;7.730;2022-08-19T04:24:21;15.36;86.44
67093;SHT31;54011;50.772;7.730;2022-08-19T04:26:47;15.23;86.75
67093;SHT31;54011;50.772;7.730;2022-08-19T04:29:19;15.31;86.24
67093;SHT31;54011;50.772;7.730;2022-08-19T04:31:48;15.28;86.43
67093;SHT31;54011;50.772;7.730;2022-08-19T04:34:16;15.10;86.82
67093;SHT31;54011;50.772;7.730;2022-08-19T04:36:43;15.21;86.43
67093;SHT31;54011;50.772;7.730;2022-08-19T04:39:18;15.05;86.93
67093;SHT31;54011;50.772;7.730;2022-08-19T04:41:45;15.14;86.85
67093;SHT31;54011;50.772;7.730;2022-08-19T04:44:31;15.03;87.08
67093;SHT31;54011;50.772;7.730;2022-08-19T04:46:57;15.12;86.67
67093;SHT31;54011;50.772;7.730;2022-08-19T04:49:23;15.11;86.63
67093;SHT31;54011;50.772;7.730;2022-08-19T04:51:50;15.15;86.79
67093;SHT31;54011;50.772;7.730;2022-08-19T04:54:18;15.32;86.17
67093;SHT31;54011;50.772;7.730;2022-08-19T04:56:45;15.38;85.93
67093;SHT31;54011;50.772;7.730;2022-08-19T04:59:10;15.34;86.28
67093;SHT31;54011;50.772;7.730;2022-08-19T05:01:37;15.42;86.32
67093;SHT31;54011;50.772;7.730;2022-08-19T05:04:04;15.55;85.74
67093;SHT31;54011;50.772;7.730;2022-08-19T05:06:30;15.48;85.93
67093;SHT31;54011;50.772;7.730;2022-08-19T05:08:58;15.56;85.79
67093;SHT31;54011;50.772;7.730;2022-08-19T05:11:26;15.69;85.51
67093;SHT31;54011;50.772;7.730;2022-08-19T05:13:55;15.72;85.21
67093;SHT31;54011;50.772;7.730;2022-08-19T05:16:22;15.76;85.05
67093;SHT31;54011;50.772;7.730;2022-08-19T05:18:48;15.86;84.50
67093;SHT31;54011;50.772;7.730;2022-08-19T05:21:32;15.78;84.59
67093;SHT31;54011;50.772;7.730;2022-08-19T05:24:17;15.86;83.95
67093;SHT31;54011;50.772;7.730;2022-08-19T05:26:45;15.75;84.50
67093;SHT31;54011;50.772;7.730;2022-08-19T05:29:12;15.70;84.58
67093;SHT31;54011;50.772;7.730;2022-08-19T05:31:38;15.85;83.56
67093;SHT31;54011;50.772;7.730;2022-08-19T05:34:05;16.06;82.48
67093;SHT31;54011;50.772;7.730;2022-08-19T05:36:34;16.16;81.89
67093;SHT31;54011;50.772;7.730;2022-08-19T05:39:01;16.38;81.14
67093;SHT31;54011;50.772;7.730;2022-08-19T05:41:26;16.07;82.46
67093;SHT31;54011;50.772;7.730;2022-08-19T05:44:02;16.18;82.35
67093;SHT31;54011;50.772;7.730;2022-08-19T05:46:31;16.28;81.63
67093;SHT31;54011;50.772;7.730;2022-08-19T05:48:56;16.41;81.13
67093;SHT31;54011;50.772;7.730;2022-08-19T05:51:23;16.58;80.46
67093;SHT31;54011;50.772;7.730;2022-08-19T05:53:49;16.72;80.00
67093;SHT31;54011;50.772;7.730;2022-08-19T05:56:16;16.65;79.82
67093;SHT31;54011;50.772;7.730;2022-08-19T05:58:44;16.57;79.91
67093;SHT31;54011;50.772;7.730;2022-08-19T06:01:14;16.63;80.30
67093;SHT31;54011;50.772;7.730;2022-08-19T06:03:40;16.98;79.16
67093;SHT31;54011;50.772;7.730;2022-08-19T06:06:08;17.16;78.68
67093;SHT31;54011;50.772;7.730;2022-08-19T06:08:35;17.26;78.30
67093;SHT31;54011;50.772;7.730;2022-08-19T06:11:23;17.04;79.42
67093;SHT31;54011;50.772;7.730;2022-08-19T06:13:51;17.30;78.40
67093;SHT31;54011;50.772;7.730;2022-08-19T06:16:21;17.11;79.36
67093;SHT31;54011;50.772;7.730;2022-08-19T06:18:49;17.25;78.89
67093;SHT31;54011;50.772;7.730;2022-08-19T06:21:17;17.30;79.08
67093;SHT31;54011;50.772;7.730;2022-08-19T06:23:42;17.43;79.00
67093;SHT31;54011;50.772;7.730;2022-08-19T06:26:12;17.85;78.23
67093;SHT31;54011;50.772;7.730;2022-08-19T06:28:37;18.26;77.42
67093;SHT31;54011;50.772;7.730;2022-08-19T06:31:08;18.01;78.93
67093;SHT31;54011;50.772;7.730;2022-08-19T06:33:34;18.05;78.96
67093;SHT31;54011;50.772;7.730;2022-08-19T06:35:59;18.14;78.65
67093;SHT31;54011;50.772;7.730;2022-08-19T06:38:25;18.35;78.15
67093;SHT31;54011;50.772;7.730;2022-08-19T06:40:50;18.31;78.03
67093;SHT31;54011;50.772;7.730;2022-08-19T06:43:16;18.48;78.07
67093;SHT31;54011;50.772;7.730;2022-08-19T06:45:41;18.39;78.33
67093;SHT31;54011;50.772;7.730;2022-08-19T06:48:07;18.56;77.94
67093;SHT31;54011;50.772;7.730;2022-08-19T06:50:33;18.53;78.52
67093;SHT31;54011;50.772;7.730;2022-08-19T06:52:58;18.41;79.31
67093;SHT31;54011;50.772;7.730;2022-08-19T06:55:23;18.51;78.81
67093;SHT31;54011;50.772;7.730;2022-08-19T06:57:49;18.73;78.19
67093;SHT31;54011;50.772;7.730;2022-08-19T07:00:18;18.86;77.65
67093;SHT31;54011;50.772;7.730;2022-08-19T07:02:44;18.99;77.26
67093;SHT31;54011;50.772;7.730;2022-08-19T07:05:09;19.06;77.16
67093;SHT31;54011;50.772;7.730;2022-08-19T07:07:35;18.79;78.01
67093;SHT31;54011;50.772;7.730;2022-08-19T07:10:01;19.18;76.99
67093;SHT31;54011;50.772;7.730;2022-08-19T07:12:29;19.15;77.14
67093;SHT31;54011;50.772;7.730;2022-08-19T07:14:58;19.44;75.93
67093;SHT31;54011;50.772;7.730;2022-08-19T07:17:23;19.43;76.71
67093;SHT31;54011;50.772;7.730;2022-08-19T07:19:48;19.32;76.82
67093;SHT31;54011;50.772;7.730;2022-08-19T07:22:15;19.39;77.63
67093;SHT31;54011;50.772;7.730;2022-08-19T07:24:41;19.79;76.49
67093;SHT31;54011;50.772;7.730;2022-08-19T07:27:06;19.93;76.02
67093;SHT31;54011;50.772;7.730;2022-08-19T07:29:34;20.17;75.50
67093;SHT31;54011;50.772;7.730;2022-08-19T07:32:01;20.34;74.90
67093;SHT31;54011;50.772;7.730;2022-08-19T07:34:29;20.60;73.89
67093;SHT31;54011;50.772;7.730;2022-08-19T07:36:55;20.77;73.38
67093;SHT31;54011;50.772;7.730;2022-08-19T07:39:24;20.99;73.07
67093;SHT31;54011;50.772;7.730;2022-08-19T07:41:50;21.29;72.02
67093;SHT31;54011;50.772;7.730;2022-08-19T07:44:15;21.16;72.67
67093;SHT31;54011;50.772;7.730;2022-08-19T07:46:44;21.18;73.13
67093;SHT31;54011;50.772;7.730;2022-08-19T07:49:11;21.29;72.84
67093;SHT31;54011;50.772;7.730;2022-08-19T07:51:44;21.18;73.63
67093;SHT31;54011;50.772;7.730;2022-08-19T07:54:10;21.41;72.69
67093;SHT31;54011;50.772;7.730;2022-08-19T07:56:36;21.19;73.57
67093;SHT31;54011;50.772;7.730;2022-08-19T07:59:02;21.63;72.52
67093;SHT31;54011;50.772;7.730;2022-08-19T08:01:28;21.96;71.04
67093;SHT31;54011;50.772;7.730;2022-08-19T08:03:56;21.63;72.22
67093;SHT31;54011;50.772;7.730;2022-08-19T08:06:41;22.10;70.75
67093;SHT31;54011;50.772;7.730;2022-08-19T08:09:32;22.13;70.63
67093;SHT31;54011;50.772;7.730;2022-08-19T08:12:23;22.25;70.56
67093;SHT31;54011;50.772;7.730;2022-08-19T08:14:52;22.32;70.48
67093;SHT31;54011;50.772;7.730;2022-08-19T08:17:21;22.41;70.43
67093;SHT31;54011;50.772;7.730;2022-08-19T08:19:46;22.79;69.27
67093;SHT31;54011;50.772;7.730;2022-08-19T08:22:16;22.93;68.66
67093;SHT31;54011;50.772;7.730;2022-08-19T08:25:14;23.07;67.72
67093;SHT31;54011;50.772;7.730;2022-08-19T08:27:41;23.16;67.28
67093;SHT31;54011;50.772;7.730;2022-08-19T08:30:09;23.61;65.92
67093;SHT31;54011;50.772;7.730;2022-08-19T08:32:36;23.99;65.16
67093;SHT31;54011;50.772;7.730;2022-08-19T08:35:04;24.21;64.15
67093;SHT31;54011;50.772;7.730;2022-08-19T08:37:30;24.12;64.06
67093;SHT31;54011;50.772;7.730;2022-08-19T08:39:55;24.22;63.19
67093;SHT31;54011;50.772;7.730;2022-08-19T08:42:26;24.55;62.78
67093;SHT31;54011;50.772;7.730;2022-08-19T08:45:01;24.87;60.77
67093;SHT31;54011;50.772;7.730;2022-08-19T08:47:33;25.59;59.79
67093;SHT31;54011;50.772;7.730;2022-08-19T08:50:07;25.53;59.97
67093;SHT31;54011;50.772;7.730;2022-08-19T08:52:39;25.48;60.27
67093;SHT31;54011;50.772;7.730;2022-08-19T08:55:15;25.30;60.10
67093;SHT31;54011;50.772;7.730;2022-08-19T09:00:25;25.65;58.91
67093;SHT31;54011;50.772;7.730;2022-08-19T09:02:52;25.83;58.43
67093;SHT31;54011;50.772;7.730;2022-08-19T09:05:19;25.88;58.50
67093;SHT31;54011;50.772;7.730;2022-08-19T09:08:10;26.57;55.44
67093;SHT31;54011;50.772;7.730;2022-08-19T09:10:52;26.30;56.62
67093;SHT31;54011;50.772;7.730;2022-08-19T09:16:03;25.62;56.61
67093;SHT31;54011;50.772;7.730;2022-08-19T09:18:40;25.97;54.53
67093;SHT31;54011;50.772;7.730;2022-08-19T09:21:06;25.89;53.91
67093;SHT31;54011;50.772;7.730;2022-08-19T09:23:34;26.20;55.26
67093;SHT31;54011;50.772;7.730;2022-08-19T09:25:59;26.44;54.27
67093;SHT31;54011;50.772;7.730;2022-08-19T09:28:25;26.41;55.41
67093;SHT31;54011;50.772;7.730;2022-08-19T09:30:51;26.00;55.88
67093;SHT31;54011;50.772;7.730;2022-08-19T09:33:16;25.94;55.49
67093;SHT31;54011;50.772;7.730;2022-08-19T09:35:42;25.17;58.19
67093;SHT31;54011;50.772;7.730;2022-08-19T09:38:08;26.58;53.88
67093;SHT31;54011;50.772;7.730;2022-08-19T09:40:33;27.83;50.87
67093;SHT31;54011;50.772;7.730;2022-08-19T09:42:59;27.73;50.38
67093;SHT31;54011;50.772;7.730;2022-08-19T09:45:27;26.99;49.59
67093;SHT31;54011;50.772;7.730;2022-08-19T09:47:53;27.13;49.43
67093;SHT31;54011;50.772;7.730;2022-08-19T09:50:19;26.55;51.05
67093;SHT31;54011;50.772;7.730;2022-08-19T09:52:45;26.81;51.06
67093;SHT31;54011;50.772;7.730;2022-08-19T09:55:11;27.06;49.64
67093;SHT31;54011;50.772;7.730;2022-08-19T09:57:37;27.94;47.12
67093;SHT31;54011;50.772;7.730;2022-08-19T10:00:05;27.91;46.37
67093;SHT31;54011;50.772;7.730;2022-08-19T10:02:33;27.02;48.02
67093;SHT31;54011;50.772;7.730;2022-08-19T10:04:58;28.27;45.87
67093;SHT31;54011;50.772;7.730;2022-08-19T10:07:42;28.11;48.10
67093;SHT31;54011;50.772;7.730;2022-08-19T10:10:08;26.52;51.31
67093;SHT31;54011;50.772;7.730;2022-08-19T10:12:35;26.41;52.30
67093;SHT31;54011;50.772;7.730;2022-08-19T10:15:03;28.24;48.29
67093;SHT31;54011;50.772;7.730;2022-08-19T10:17:28;27.84;48.45
67093;SHT31;54011;50.772;7.730;2022-08-19T10:19:54;27.28;49.74
67093;SHT31;54011;50.772;7.730;2022-08-19T10:22:19;27.77;48.69
67093;SHT31;54011;50.772;7.730;2022-08-19T10:24:47;28.24;46.27
67093;SHT31;54011;50.772;7.730;2022-08-19T10:27:14;28.49;45.61
67093;SHT31;54011;50.772;7.730;2022-08-19T10:29:42;29.76;43.96
67093;SHT31;54011;50.772;7.730;2022-08-19T10:32:09;28.58;45.45
67093;SHT31;54011;50.772;7.730;2022-08-19T10:34:38;26.79;49.17
67093;SHT31;54011;50.772;7.730;2022-08-19T10:37:05;26.99;48.75
67093;SHT31;54011;50.772;7.730;2022-08-19T10:39:32;28.27;45.71
67093;SHT31;54011;50.772;7.730;2022-08-19T10:41:59;28.93;44.23
67093;SHT31;54011;50.772;7.730;2022-08-19T10:44:24;29.51;43.05
67093;SHT31;54011;50.772;7.730;2022-08-19T10:46:50;30.56;40.89
67093;SHT31;54011;50.772;7.730;2022-08-19T10:49:18;27.76;46.27
67093;SHT31;54011;50.772;7.730;2022-08-19T10:51:44;28.45;45.09
67093;SHT31;54011;50.772;7.730;2022-08-19T10:54:29;29.00;43.00
67093;SHT31;54011;50.772;7.730;2022-08-19T10:57:15;29.20;41.79
67093;SHT31;54011;50.772;7.730;2022-08-19T10:59:41;30.04;40.22
67093;SHT31;54011;50.772;7.730;2022-08-19T11:02:09;28.73;42.85
67093;SHT31;54011;50.772;7.730;2022-08-19T11:04:39;28.97;43.54
67093;SHT31;54011;50.772;7.730;2022-08-19T11:07:05;28.42;44.74
67093;SHT31;54011;50.772;7.730;2022-08-19T11:09:31;27.97;45.33
67093;SHT31;54011;50.772;7.730;2022-08-19T11:12:01;28.39;44.96
67093;SHT31;54011;50.772;7.730;2022-08-19T11:14:26;30.01;41.25
67093;SHT31;54011;50.772;7.730;2022-08-19T11:16:56;30.54;39.66
67093;SHT31;54011;50.772;7.730;2022-08-19T11:19:22;31.25;38.55
67093;SHT31;54011;50.772;7.730;2022-08-19T11:21:49;30.32;40.11
67093;SHT31;54011;50.772;7.730;2022-08-19T11:24:21;29.68;41.67
67093;SHT31;54011;50.772;7.730;2022-08-19T11:26:48;30.52;40.41
67093;SHT31;54011;50.772;7.730;2022-08-19T11:29:15;30.15;40.70
67093;SHT31;54011;50.772;7.730;2022-08-19T11:31:44;30.26;40.39
67093;SHT31;54011;50.772;7.730;2022-08-19T11:34:12;28.09;43.63
67093;SHT31;54011;50.772;7.730;2022-08-19T11:36:40;27.32;43.96
67093;SHT31;54011;50.772;7.730;2022-08-19T11:39:08;28.75;42.59
67093;SHT31;54011;50.772;7.730;2022-08-19T11:41:34;29.92;41.27
67093;SHT31;54011;50.772;7.730;2022-08-19T11:44:00;28.99;43.86
67093;SHT31;54011;50.772;7.730;2022-08-19T11:46:28;28.15;45.50
67093;SHT31;54011;50.772;7.730;2022-08-19T11:48:58;27.10;47.94
67093;SHT31;54011;50.772;7.730;2022-08-19T11:51:25;27.02;47.99
67093;SHT31;54011;50.772;7.730;2022-08-19T11:53:52;27.22;47.29
67093;SHT31;54011;50.772;7.730;2022-08-19T11:56:18;28.34;44.30
67093;SHT31;54011;50.772;7.730;2022-08-19T11:58:45;28.96;42.98
67093;SHT31;54011;50.772;7.730;2022-08-19T12:01:13;30.22;40.83
67093;SHT31;54011;50.772;7.730;2022-08-19T12:03:42;28.62;43.48
67093;SHT31;54011;50.772;7.730;2022-08-19T12:06:13;28.75;42.24
67093;SHT31;54011;50.772;7.730;2022-08-19T12:08:40;27.61;44.19
67093;SHT31;54011;50.772;7.730;2022-08-19T12:11:06;28.60;41.23
67093;SHT31;54011;50.772;7.730;2022-08-19T12:13:35;28.89;41.32
67093;SHT31;54011;50.772;7.730;2022-08-19T12:16:10;30.37;39.76
67093;SHT31;54011;50.772;7.730;2022-08-19T12:18:39;30.52;39.06
67093;SHT31;54011;50.772;7.730;2022-08-19T12:21:07;30.99;37.08
67093;SHT31;54011;50.772;7.730;2022-08-19T12:23:33;31.12;37.03
67093;SHT31;54011;50.772;7.730;2022-08-19T12:25:58;31.15;36.83
67093;SHT31;54011;50.772;7.730;2022-08-19T12:28:24;32.13;33.99
67093;SHT31;54011;50.772;7.730;2022-08-19T12:30:50;32.61;33.57
67093;SHT31;54011;50.772;7.730;2022-08-19T12:33:17;32.54;34.34
67093;SHT31;54011;50.772;7.730;2022-08-19T12:35:45;32.94;34.36
67093;SHT31;54011;50.772;7.730;2022-08-19T12:38:12;32.19;35.43
67093;SHT31;54011;50.772;7.730;2022-08-19T12:40:38;32.57;34.32
67093;SHT31;54011;50.772;7.730;2022-08-19T12:43:06;33.62;34.10
67093;SHT31;54011;50.772;7.730;2022-08-19T12:45:32;32.62;35.41
67093;SHT31;54011;50.772;7.730;2022-08-19T12:47:57;33.56;33.93
67093;SHT31;54011;50.772;7.730;2022-08-19T12:50:23;31.85;36.65
67093;SHT31;54011;50.772;7.730;2022-08-19T12:52:49;32.72;34.51
67093;SHT31;54011;50.772;7.730;2022-08-19T12:55:15;31.31;36.01
67093;SHT31;54011;50.772;7.730;2022-08-19T12:57:41;29.44;40.39
67093;SHT31;54011;50.772;7.730;2022-08-19T13:00:15;30.01;39.49
67093;SHT31;54011;50.772;7.730;2022-08-19T13:02:43;30.33;39.34
67093;SHT31;54011;50.772;7.730;2022-08-19T13:05:15;31.53;37.07
67093;SHT31;54011;50.772;7.730;2022-08-19T13:07:42;30.57;37.58
67093;SHT31;54011;50.772;7.730;2022-08-19T13:10:11;29.13;40.07
67093;SHT31;54011;50.772;7.730;2022-08-19T13:12:37;28.55;41.83
67093;SHT31;54011;50.772;7.730;2022-08-19T13:15:03;29.37;40.47
67093;SHT31;54011;50.772;7.730;2022-08-19T13:17:29;30.39;37.88
67093;SHT31;54011;50.772;7.730;2022-08-19T13:20:04;30.71;37.44
67093;SHT31;54011;50.772;7.730;2022-08-19T13:22:32;31.89;36.47
67093;SHT31;54011;50.772;7.730;2022-08-19T13:24:59;32.00;34.96
67093;SHT31;54011;50.772;7.730;2022-08-19T13:27:28;32.55;33.63
67093;SHT31;54011;50.772;7.730;2022-08-19T13:29:54;32.06;34.64
67093;SHT31;54011;50.772;7.730;2022-08-19T13:32:38;32.13;33.97
67093;SHT31;54011;50.772;7.730;2022-08-19T13:35:22;31.41;34.93
67093;SHT31;54011;50.772;7.730;2022-08-19T13:37:48;31.70;34.01
67093;SHT31;54011;50.772;7.730;2022-08-19T13:40:19;32.20;31.89
67093;SHT31;54011;50.772;7.730;2022-08-19T13:42:49;28.84;36.69
67093;SHT31;54011;50.772;7.730;2022-08-19T13:45:20;30.33;35.28
67093;SHT31;54011;50.772;7.730;2022-08-19T13:47:47;31.08;34.52
67093;SHT31;54011;50.772;7.730;2022-08-19T13:50:14;32.99;31.08
67093;SHT31;54011;50.772;7.730;2022-08-19T13:52:41;33.56;31.67
67093;SHT31;54011;50.772;7.730;2022-08-19T13:55:09;33.01;33.38
67093;SHT31;54011;50.772;7.730;2022-08-19T13:57:35;33.34;33.68
67093;SHT31;54011;50.772;7.730;2022-08-19T14:00:08;32.25;35.64
67093;SHT31;54011;50.772;7.730;2022-08-19T14:02:38;32.98;34.92
67093;SHT31;54011;50.772;7.730;2022-08-19T14:05:06;32.07;35.69
67093;SHT31;54011;50.772;7.730;2022-08-19T14:07:32;32.67;35.16
67093;SHT31;54011;50.772;7.730;2022-08-19T14:09:58;31.45;37.18
67093;SHT31;54011;50.772;7.730;2022-08-19T14:12:23;29.86;39.80
67093;SHT31;54011;50.772;7.730;2022-08-19T14:14:49;31.55;37.22
67093;SHT31;54011;50.772;7.730;2022-08-19T14:17:15;31.76;36.62
67093;SHT31;54011;50.772;7.730;2022-08-19T14:19:41;33.09;34.53
67093;SHT31;54011;50.772;7.730;2022-08-19T14:22:07;30.90;38.47
67093;SHT31;54011;50.772;7.730;2022-08-19T14:24:33;30.32;39.14
67093;SHT31;54011;50.772;7.730;2022-08-19T14:26:58;28.56;42.41
67093;SHT31;54011;50.772;7.730;2022-08-19T14:29:25;28.79;42.14
67093;SHT31;54011;50.772;7.730;2022-08-19T14:31:52;30.41;39.10
67093;SHT31;54011;50.772;7.730;2022-08-19T14:34:18;30.12;39.86
67093;SHT31;54011;50.772;7.730;2022-08-19T14:36:43;30.50;38.22
67093;SHT31;54011;50.772;7.730;2022-08-19T14:39:12;32.10;35.85
67093;SHT31;54011;50.772;7.730;2022-08-19T14:41:40;32.30;34.96
67093;SHT31;54011;50.772;7.730;2022-08-19T14:44:06;32.91;33.58
67093;SHT31;54011;50.772;7.730;2022-08-19T14:46:32;33.52;32.01
67093;SHT31;54011;50.772;7.730;2022-08-19T14:48:57;33.98;31.81
67093;SHT31;54011;50.772;7.730;2022-08-19T14:51:24;32.02;34.11
67093;SHT31;54011;50.772;7.730;2022-08-19T14:53:51;31.67;34.90
67093;SHT31;54011;50.772;7.730;2022-08-19T14:56:20;31.50;34.84
67093;SHT31;54011;50.772;7.730;2022-08-19T14:58:46;32.57;33.80
67093;SHT31;54011;50.772;7.730;2022-08-19T15:01:12;32.34;33.17
67093;SHT31;54011;50.772;7.730;2022-08-19T15:03:38;31.98;33.17
67093;SHT31;54011;50.772;7.730;2022-08-19T15:06:06;31.72;33.52
67093;SHT31;54011;50.772;7.730;2022-08-19T15:08:34;33.15;31.86
67093;SHT31;54011;50.772;7.730;2022-08-19T15:11:00;32.24;33.37
67093;SHT31;54011;50.772;7.730;2022-08-19T15:13:28;32.34;33.44
67093;SHT31;54011;50.772;7.730;2022-08-19T15:15:54;32.09;34.33
67093;SHT31;54011;50.772;7.730;2022-08-19T15:18:20;31.50;34.77
67093;SHT31;54011;50.772;7.730;2022-08-19T15:20:48;32.20;33.73
67093;SHT31;54011;50.772;7.730;2022-08-19T15:23:15;32.67;33.27
67093;SHT31;54011;50.772;7.730;2022-08-19T15:25:40;31.69;34.21
67093;SHT31;54011;50.772;7.730;2022-08-19T15:28:08;32.38;33.33
67093;SHT31;54011;50.772;7.730;2022-08-19T15:30:37;32.55;32.97
67093;SHT31;54011;50.772;7.730;2022-08-19T15:33:03;32.95;32.03
67093;SHT31;54011;50.772;7.730;2022-08-19T15:35:29;31.97;32.80
67093;SHT31;54011;50.772;7.730;2022-08-19T15:37:55;30.57;34.84
67093;SHT31;54011;50.772;7.730;2022-08-19T15:40:22;29.31;37.32